createdAt,value
2023-04-16T00:00:18.244Z,80.10
2023-04-16T00:01:22.024Z,80.33
2023-04-16T00:02:25.658Z,79.95
2023-04-16T00:03:28.814Z,79.80
2023-04-16T00:04:32.572Z,80.04
2023-04-16T00:05:36.311Z,80.46
2023-04-16T00:06:39.382Z,80.00
2023-04-16T00:07:43.073Z,80.64
2023-04-16T00:08:46.568Z,80.16
2023-04-16T00:09:50.255Z,79.64
2023-04-16T00:10:53.874Z,79.90
2023-04-16T00:11:57.279Z,79.85
2023-04-16T00:13:00.721Z,79.60
2023-04-16T00:14:04.097Z,79.50
2023-04-16T00:15:07.732Z,79.83
2023-04-16T00:16:11.279Z,80.16
2023-04-16T00:17:14.481Z,80.50
2023-04-16T00:18:17.793Z,80.42
2023-04-16T00:19:21.182Z,80.80
2023-04-16T00:20:24.656Z,80.45
2023-04-16T00:21:27.433Z,79.93
2023-04-16T00:22:30.481Z,80.58
2023-04-16T00:23:34.076Z,79.93
2023-04-16T00:24:37.542Z,79.81
2023-04-16T00:25:41.413Z,80.09
2023-04-16T00:26:46.981Z,80.47
2023-04-16T00:27:50.751Z,79.98
2023-04-16T00:28:54.358Z,79.86
2023-04-16T00:29:57.941Z,80.38
2023-04-16T00:31:01.749Z,80.00
2023-04-16T00:32:06.382Z,80.81
2023-04-16T00:33:09.129Z,80.58
2023-04-16T00:34:12.230Z,79.88
2023-04-16T00:35:16.074Z,80.27
2023-04-16T00:36:19.443Z,80.39
2023-04-16T00:37:22.358Z,80.70
2023-04-16T00:38:25.979Z,80.09
2023-04-16T00:39:29.736Z,80.51
2023-04-16T00:40:33.189Z,80.02
2023-04-16T00:41:36.632Z,79.99
2023-04-16T00:42:39.889Z,80.22
2023-04-16T00:43:42.658Z,80.30
2023-04-16T00:44:46.002Z,80.58
2023-04-16T00:45:49.600Z,79.83
2023-04-16T00:46:53.232Z,79.83
2023-04-16T00:47:57.726Z,79.68
2023-04-16T00:49:02.114Z,79.78
2023-04-16T00:50:06.464Z,80.03
2023-04-16T00:51:09.545Z,79.84
2023-04-16T00:52:12.548Z,79.45
2023-04-16T00:53:17.170Z,79.51
2023-04-16T00:54:20.434Z,79.68
2023-04-16T00:55:23.685Z,79.36
2023-04-16T00:56:27.780Z,79.84
2023-04-16T00:57:31.976Z,80.33
2023-04-16T00:58:35.960Z,80.09
2023-04-16T00:59:39.652Z,80.00
2023-04-16T01:00:43.411Z,79.56
2023-04-16T01:01:46.914Z,79.31
2023-04-16T01:02:50.526Z,79.04
2023-04-16T01:03:55.487Z,78.86
2023-04-16T01:04:59.472Z,79.36
2023-04-16T01:06:03.019Z,78.99
2023-04-16T01:07:06.215Z,79.71
2023-04-16T01:08:16.636Z,79.07
2023-04-16T01:09:19.848Z,79.45
2023-04-16T01:10:23.179Z,79.30
2023-04-16T01:11:26.564Z,79.45
2023-04-16T01:12:30.216Z,79.23
2023-04-16T01:13:34.265Z,79.52
2023-04-16T01:14:38.320Z,80.45
2023-04-16T01:15:41.686Z,79.53
2023-04-16T01:16:45.168Z,80.60
2023-04-16T01:17:48.234Z,80.63
2023-04-16T01:18:51.544Z,80.26
2023-04-16T01:19:55.053Z,80.86
2023-04-16T01:20:59.198Z,80.65
2023-04-16T01:22:02.685Z,80.52
2023-04-16T01:23:06.207Z,80.02
2023-04-16T01:24:09.221Z,80.27
2023-04-16T01:25:15.154Z,80.05
2023-04-16T01:26:18.475Z,80.27
2023-04-16T01:27:22.211Z,79.77
2023-04-16T01:28:26.038Z,80.03
2023-04-16T01:29:29.274Z,79.81
2023-04-16T01:30:34.221Z,79.57
2023-04-16T01:31:57.419Z,79.34
2023-04-16T01:33:09.123Z,79.29
2023-04-16T01:34:12.764Z,79.45
2023-04-16T01:35:16.074Z,79.26
2023-04-16T01:36:20.249Z,78.95
2023-04-16T01:37:23.518Z,79.12
2023-04-16T01:38:26.629Z,79.35
2023-04-16T01:39:29.514Z,79.47
2023-04-16T01:40:34.376Z,79.36
2023-04-16T01:41:37.949Z,79.44
2023-04-16T01:42:41.892Z,79.73
2023-04-16T01:43:45.400Z,79.37
2023-04-16T01:44:48.509Z,79.45
2023-04-16T01:45:51.757Z,79.55
2023-04-16T01:46:55.543Z,79.61
2023-04-16T01:47:58.409Z,79.53
2023-04-16T01:49:02.761Z,79.95
2023-04-16T01:50:06.427Z,79.96
2023-04-16T01:51:11.096Z,80.02
2023-04-16T01:52:14.156Z,79.81
2023-04-16T01:53:17.860Z,79.97
2023-04-16T01:54:21.217Z,80.93
2023-04-16T01:55:24.461Z,80.38
2023-04-16T01:56:27.780Z,80.04
2023-04-16T01:57:31.337Z,80.97
2023-04-16T01:58:35.038Z,80.67
2023-04-16T01:59:38.603Z,80.30
2023-04-16T02:00:43.297Z,80.60
2023-04-16T02:01:46.897Z,79.77
2023-04-16T02:02:51.125Z,79.73
2023-04-16T02:04:01.878Z,79.91
2023-04-16T02:05:05.537Z,80.73
2023-04-16T02:06:08.763Z,81.96
2023-04-16T02:07:12.481Z,80.91
2023-04-16T02:08:15.975Z,80.72
2023-04-16T02:09:19.604Z,80.86
2023-04-16T02:10:24.341Z,81.32
2023-04-16T02:11:27.602Z,81.96
2023-04-16T02:12:31.748Z,81.77
2023-04-16T02:13:35.578Z,81.72
2023-04-16T02:14:38.715Z,81.50
2023-04-16T02:15:45.407Z,81.79
2023-04-16T02:16:48.864Z,81.57
2023-04-16T02:18:10.926Z,81.61
2023-04-16T02:19:14.351Z,82.14
2023-04-16T02:20:18.832Z,81.98
2023-04-16T02:21:28.165Z,82.22
2023-04-16T02:22:31.867Z,82.51
2023-04-16T02:23:35.209Z,83.10
2023-04-16T02:24:39.347Z,82.69
2023-04-16T02:25:45.990Z,82.54
2023-04-16T02:26:49.595Z,82.13
2023-04-16T02:27:54.825Z,82.13
2023-04-16T02:29:09.467Z,82.05
2023-04-16T02:30:20.215Z,82.23
2023-04-16T02:31:24.336Z,82.78
2023-04-16T02:32:28.131Z,83.14
2023-04-16T02:33:32.464Z,83.09
2023-04-16T02:34:41.096Z,82.75
2023-04-16T02:35:44.368Z,82.45
2023-04-16T02:36:47.345Z,82.97
2023-04-16T02:37:51.138Z,82.65
2023-04-16T02:38:54.302Z,82.63
2023-04-16T02:39:58.434Z,82.79
2023-04-16T02:41:02.371Z,82.42
2023-04-16T02:42:06.262Z,82.54
2023-04-16T02:43:09.885Z,82.50
2023-04-16T02:44:13.530Z,82.41
2023-04-16T02:45:17.155Z,81.93
2023-04-16T02:46:20.186Z,81.96
2023-04-16T02:47:23.552Z,82.79
2023-04-16T02:48:27.412Z,82.74
2023-04-16T02:49:31.709Z,81.98
2023-04-16T02:50:35.137Z,82.27
2023-04-16T02:51:38.423Z,82.86
2023-04-16T02:52:41.679Z,82.34
2023-04-16T02:53:46.931Z,82.48
2023-04-16T02:54:50.811Z,82.90
2023-04-16T02:55:54.508Z,83.13
2023-04-16T02:56:58.441Z,82.75
2023-04-16T02:58:02.136Z,82.46
2023-04-16T02:59:05.828Z,82.55
2023-04-16T03:00:09.720Z,82.25
2023-04-16T03:01:13.218Z,82.54
2023-04-16T03:02:17.258Z,82.62
2023-04-16T03:03:20.993Z,82.51
2023-04-16T03:04:24.769Z,82.38
2023-04-16T03:05:28.381Z,82.42
2023-04-16T03:06:32.609Z,82.70
2023-04-16T03:07:36.350Z,82.90
2023-04-16T03:08:39.539Z,83.25
2023-04-16T03:09:42.846Z,83.14
2023-04-16T03:10:45.874Z,83.13
2023-04-16T03:11:51.307Z,83.50
2023-04-16T03:12:55.168Z,84.07
2023-04-16T03:13:57.996Z,84.44
2023-04-16T03:15:01.443Z,84.54
2023-04-16T03:16:06.408Z,84.24
2023-04-16T03:17:09.190Z,84.23
2023-04-16T03:18:12.417Z,84.70
2023-04-16T03:19:16.176Z,84.78
2023-04-16T03:20:20.481Z,85.16
2023-04-16T03:21:24.377Z,84.93
2023-04-16T03:22:27.676Z,85.07
2023-04-16T03:23:31.395Z,85.18
2023-04-16T03:24:35.005Z,85.45
2023-04-16T03:25:41.506Z,85.42
2023-04-16T03:26:46.459Z,84.69
2023-04-16T03:27:49.869Z,84.58
2023-04-16T03:28:53.513Z,84.67
2023-04-16T03:29:57.314Z,84.57
2023-04-16T03:31:01.270Z,84.56
2023-04-16T03:32:05.713Z,84.95
2023-04-16T03:33:09.366Z,85.23
2023-04-16T03:34:12.645Z,84.96
2023-04-16T03:35:17.473Z,85.07
2023-04-16T03:36:21.435Z,85.23
2023-04-16T03:37:25.540Z,85.38
2023-04-16T03:38:28.888Z,85.86
2023-04-16T03:39:34.842Z,87.24
2023-04-16T03:40:37.811Z,87.39
2023-04-16T03:41:41.196Z,87.39
2023-04-16T03:42:44.490Z,87.79
2023-04-16T03:43:48.154Z,88.17
2023-04-16T03:44:53.710Z,88.32
2023-04-16T03:45:58.560Z,87.71
2023-04-16T03:47:02.505Z,88.02
2023-04-16T03:48:05.711Z,88.19
2023-04-16T03:49:09.039Z,88.25
2023-04-16T03:50:12.397Z,88.84
2023-04-16T03:51:16.717Z,88.98
2023-04-16T03:52:20.085Z,89.50
2023-04-16T03:53:24.131Z,89.81
2023-04-16T03:54:27.763Z,89.98
2023-04-16T03:55:43.936Z,90.06
2023-04-16T03:56:47.397Z,90.29
2023-04-16T03:57:51.184Z,89.53
2023-04-16T03:58:54.391Z,89.50
2023-04-16T03:59:57.568Z,89.21
2023-04-16T04:01:03.032Z,88.87
2023-04-16T04:02:06.795Z,88.22
2023-04-16T04:03:10.989Z,88.03
2023-04-16T04:04:14.907Z,87.60
2023-04-16T04:05:18.242Z,87.08
2023-04-16T04:06:22.243Z,87.04
2023-04-16T04:07:25.716Z,86.79
2023-04-16T04:08:28.868Z,86.68
2023-04-16T04:09:32.518Z,86.84
2023-04-16T04:10:37.118Z,87.02
2023-04-16T04:11:42.012Z,86.79
2023-04-16T04:12:45.814Z,86.72
2023-04-16T04:13:49.486Z,86.90
2023-04-16T04:14:52.437Z,86.55
2023-04-16T04:15:57.140Z,86.51
2023-04-16T04:17:00.541Z,86.45
2023-04-16T04:18:04.165Z,86.52
2023-04-16T04:19:07.833Z,86.34
2023-04-16T04:20:12.090Z,86.32
2023-04-16T04:21:17.026Z,86.50
2023-04-16T04:22:20.830Z,86.55
2023-04-16T04:23:24.216Z,86.55
2023-04-16T04:24:28.215Z,86.42
2023-04-16T04:25:31.174Z,86.36
2023-04-16T04:26:36.137Z,86.20
2023-04-16T04:27:39.451Z,86.02
2023-04-16T04:28:43.789Z,86.14
2023-04-16T04:29:47.200Z,86.12
2023-04-16T04:30:50.536Z,86.17
2023-04-16T04:31:56.425Z,86.13
2023-04-16T04:32:59.755Z,86.34
2023-04-16T04:34:03.185Z,87.32
2023-04-16T04:35:06.676Z,87.90
2023-04-16T04:36:10.211Z,88.20
2023-04-16T04:37:13.754Z,88.00
2023-04-16T04:38:20.487Z,87.32
2023-04-16T04:39:24.708Z,87.61
2023-04-16T04:40:27.772Z,87.34
2023-04-16T04:41:30.946Z,87.15
2023-04-16T04:42:34.360Z,86.95
2023-04-16T04:43:38.101Z,86.87
2023-04-16T04:44:42.356Z,86.88
2023-04-16T04:45:45.553Z,86.58
2023-04-16T04:46:48.890Z,86.46
2023-04-16T04:47:55.151Z,86.70
2023-04-16T04:48:59.050Z,86.20
2023-04-16T04:50:02.463Z,86.55
2023-04-16T04:51:07.907Z,86.22
2023-04-16T04:52:11.379Z,86.69
2023-04-16T04:53:15.502Z,87.16
2023-04-16T04:54:19.277Z,87.48
2023-04-16T04:55:22.798Z,87.76
2023-04-16T04:56:26.865Z,88.68
2023-04-16T04:57:30.956Z,89.46
2023-04-16T04:58:34.294Z,89.62
2023-04-16T04:59:38.837Z,89.97
2023-04-16T05:00:43.826Z,89.98
2023-04-16T05:01:47.659Z,89.92
2023-04-16T05:02:52.202Z,89.75
2023-04-16T05:03:55.351Z,90.17
2023-04-16T05:04:58.970Z,90.30
2023-04-16T05:06:02.220Z,90.37
2023-04-16T05:07:05.831Z,90.61
2023-04-16T05:08:09.596Z,90.63
2023-04-16T05:09:12.864Z,90.87
2023-04-16T05:10:16.399Z,91.03
2023-04-16T05:11:19.257Z,90.81
2023-04-16T05:12:22.803Z,90.50
2023-04-16T05:13:26.645Z,89.83
2023-04-16T05:14:29.937Z,90.08
2023-04-16T05:15:33.669Z,90.08
2023-04-16T05:16:37.418Z,90.39
2023-04-16T05:17:40.834Z,90.46
2023-04-16T05:18:44.191Z,90.43
2023-04-16T05:19:47.500Z,90.62
2023-04-16T05:20:50.655Z,90.48
2023-04-16T05:21:54.227Z,90.49
2023-04-16T05:22:57.204Z,90.69
2023-04-16T05:23:59.996Z,90.34
2023-04-16T05:25:07.339Z,90.55
2023-04-16T05:26:10.308Z,90.97
2023-04-16T05:27:13.610Z,90.71
2023-04-16T05:28:16.907Z,90.90
2023-04-16T05:29:20.032Z,91.26
2023-04-16T05:30:23.128Z,91.33
2023-04-16T05:31:26.738Z,91.47
2023-04-16T05:32:29.825Z,91.49
2023-04-16T05:33:32.986Z,91.51
2023-04-16T05:34:36.233Z,91.48
2023-04-16T05:35:39.184Z,91.38
2023-04-16T05:36:42.632Z,91.26
2023-04-16T05:37:45.937Z,91.12
2023-04-16T05:38:49.172Z,91.05
2023-04-16T05:39:52.397Z,91.10
2023-04-16T05:40:56.589Z,91.10
2023-04-16T05:42:00.090Z,90.69
2023-04-16T05:43:03.599Z,90.11
2023-04-16T05:44:06.681Z,89.87
2023-04-16T05:45:10.670Z,89.84
2023-04-16T05:46:14.263Z,89.53
2023-04-16T05:47:18.526Z,89.40
2023-04-16T05:48:21.827Z,89.19
2023-04-16T05:49:25.273Z,89.14
2023-04-16T05:50:28.736Z,89.03
2023-04-16T05:51:32.929Z,88.77
2023-04-16T05:52:36.191Z,88.73
2023-04-16T05:53:39.373Z,88.57
2023-04-16T05:54:42.754Z,88.39
2023-04-16T05:55:45.946Z,88.28
2023-04-16T05:56:49.368Z,88.04
2023-04-16T05:57:52.840Z,87.79
2023-04-16T05:58:55.975Z,87.65
2023-04-16T05:59:59.065Z,87.43
2023-04-16T06:01:02.668Z,87.34
2023-04-16T06:02:05.471Z,87.29
2023-04-16T06:03:10.430Z,87.49
2023-04-16T06:04:14.630Z,87.16
2023-04-16T06:05:18.556Z,87.21
2023-04-16T06:06:22.018Z,87.20
2023-04-16T06:07:25.308Z,86.89
2023-04-16T06:08:29.023Z,87.14
2023-04-16T06:09:32.264Z,86.77
2023-04-16T06:10:35.747Z,86.76
2023-04-16T06:11:38.820Z,87.13
2023-04-16T06:12:41.741Z,86.84
2023-04-16T06:13:45.316Z,86.68
2023-04-16T06:14:48.386Z,86.68
2023-04-16T06:15:51.661Z,87.01
2023-04-16T06:16:54.992Z,86.92
2023-04-16T06:18:00.762Z,87.11
2023-04-16T06:19:04.599Z,87.36
2023-04-16T06:20:08.198Z,87.24
2023-04-16T06:21:11.088Z,86.92
2023-04-16T06:22:14.385Z,86.55
2023-04-16T06:23:17.874Z,86.66
2023-04-16T06:24:21.379Z,86.94
2023-04-16T06:25:24.343Z,87.13
2023-04-16T06:26:27.442Z,87.05
2023-04-16T06:27:31.916Z,87.26
2023-04-16T06:28:35.196Z,87.22
2023-04-16T06:29:41.697Z,87.20
2023-04-16T06:30:44.935Z,87.09
2023-04-16T06:31:48.708Z,86.81
2023-04-16T06:32:52.329Z,86.62
2023-04-16T06:33:55.716Z,86.67
2023-04-16T06:34:59.303Z,86.41
2023-04-16T06:36:02.495Z,86.47
2023-04-16T06:37:06.425Z,86.17
2023-04-16T06:38:10.692Z,86.22
2023-04-16T06:39:13.841Z,86.36
2023-04-16T06:40:17.196Z,85.99
2023-04-16T06:41:20.539Z,85.85
2023-04-16T06:42:24.073Z,85.79
2023-04-16T06:43:28.050Z,85.69
2023-04-16T06:44:31.575Z,85.95
2023-04-16T06:45:35.463Z,85.81
2023-04-16T06:46:38.543Z,85.82
2023-04-16T06:47:42.287Z,85.70
2023-04-16T06:48:45.639Z,85.14
2023-04-16T06:49:49.138Z,85.09
2023-04-16T06:50:52.593Z,84.41
2023-04-16T06:51:55.929Z,84.07
2023-04-16T06:52:59.576Z,83.67
2023-04-16T06:54:02.900Z,82.99
2023-04-16T06:55:06.672Z,82.89
2023-04-16T06:56:09.743Z,82.90
2023-04-16T06:57:12.960Z,83.58
2023-04-16T06:58:16.321Z,83.47
2023-04-16T06:59:19.369Z,82.92
2023-04-16T07:00:23.008Z,82.53
2023-04-16T07:01:26.873Z,82.56
2023-04-16T07:02:29.791Z,83.93
2023-04-16T07:03:32.980Z,84.25
2023-04-16T07:04:36.448Z,83.85
2023-04-16T07:05:39.596Z,83.02
2023-04-16T07:06:43.066Z,83.15
2023-04-16T07:07:46.142Z,83.46
2023-04-16T07:08:49.100Z,82.26
2023-04-16T07:09:52.715Z,82.79
2023-04-16T07:10:55.742Z,82.96
2023-04-16T07:11:58.960Z,83.10
2023-04-16T07:13:02.349Z,83.43
2023-04-16T07:14:06.084Z,84.06
2023-04-16T07:15:09.652Z,83.43
2023-04-16T07:16:12.459Z,82.87
2023-04-16T07:17:16.154Z,83.24
2023-04-16T07:18:20.815Z,82.84
2023-04-16T07:19:24.896Z,81.35
2023-04-16T07:20:28.436Z,79.13
2023-04-16T07:21:32.601Z,77.07
2023-04-16T07:22:36.279Z,75.42
2023-04-16T07:23:40.052Z,73.95
2023-04-16T07:24:43.014Z,73.07
2023-04-16T07:25:46.397Z,71.33
2023-04-16T07:26:49.469Z,70.29
2023-04-16T07:27:52.549Z,67.82
2023-04-16T07:28:55.617Z,64.80
2023-04-16T07:29:58.657Z,62.26
2023-04-16T07:31:02.114Z,58.34
2023-04-16T07:32:05.398Z,56.91
2023-04-16T07:33:08.679Z,55.09
2023-04-16T07:34:12.366Z,53.97
2023-04-16T07:35:15.884Z,52.38
2023-04-16T07:36:18.657Z,50.79
2023-04-16T07:37:22.330Z,50.96
2023-04-16T07:38:25.969Z,50.80
2023-04-16T07:39:29.121Z,49.62
2023-04-16T07:40:32.591Z,48.65
2023-04-16T07:41:35.994Z,49.60
2023-04-16T07:42:38.741Z,48.71
2023-04-16T07:43:42.436Z,48.55
2023-04-16T07:44:45.593Z,45.94
2023-04-16T07:45:49.363Z,45.55
2023-04-16T07:46:52.946Z,45.88
2023-04-16T07:47:56.180Z,44.71
2023-04-16T07:48:59.322Z,45.20
2023-04-16T07:50:02.896Z,45.62
2023-04-16T07:51:05.732Z,45.59
2023-04-16T07:52:09.224Z,43.54
2023-04-16T07:53:12.990Z,42.71
2023-04-16T07:54:16.694Z,41.75
2023-04-16T07:55:19.896Z,41.50
2023-04-16T07:56:23.034Z,41.28
2023-04-16T07:57:26.393Z,42.37
2023-04-16T07:58:29.203Z,42.39
2023-04-16T07:59:32.601Z,43.07
2023-04-16T08:00:36.275Z,44.07
2023-04-16T08:01:39.905Z,42.71
2023-04-16T08:02:44.536Z,41.65
2023-04-16T08:03:47.892Z,40.49
2023-04-16T08:04:51.515Z,40.23
2023-04-16T08:05:54.632Z,40.43
2023-04-16T08:06:58.082Z,39.60
2023-04-16T08:08:01.069Z,39.99
2023-04-16T08:09:04.118Z,39.66
2023-04-16T08:10:07.540Z,39.67
2023-04-16T08:11:10.559Z,39.33
2023-04-16T08:12:13.704Z,38.85
2023-04-16T08:13:16.648Z,39.10
2023-04-16T08:14:20.119Z,38.92
2023-04-16T08:15:22.894Z,39.13
2023-04-16T08:16:26.567Z,37.83
2023-04-16T08:17:30.567Z,36.97
2023-04-16T08:18:33.656Z,36.26
2023-04-16T08:19:36.531Z,35.76
2023-04-16T08:20:40.257Z,34.80
2023-04-16T08:21:43.602Z,34.32
2023-04-16T08:22:47.209Z,33.92
2023-04-16T08:23:50.285Z,33.43
2023-04-16T08:24:53.705Z,32.42
2023-04-16T08:25:57.089Z,32.84
2023-04-16T08:27:08.069Z,33.51
2023-04-16T08:28:20.985Z,33.68
2023-04-16T08:29:27.321Z,34.74
2023-04-16T08:30:30.685Z,34.96
2023-04-16T08:31:33.862Z,33.36
2023-04-16T08:32:36.650Z,34.73
2023-04-16T08:33:41.391Z,34.71
2023-04-16T08:34:44.739Z,33.69
2023-04-16T08:35:48.340Z,33.43
2023-04-16T08:36:52.176Z,34.11
2023-04-16T08:37:55.732Z,33.93
2023-04-16T08:38:59.738Z,33.81
2023-04-16T08:40:03.357Z,33.54
2023-04-16T08:41:07.525Z,32.42
2023-04-16T08:42:13.804Z,32.38
2023-04-16T08:43:17.487Z,32.67
2023-04-16T08:44:21.974Z,33.99
2023-04-16T08:45:26.432Z,32.54
2023-04-16T08:46:29.487Z,31.42
2023-04-16T08:47:32.517Z,31.55
2023-04-16T08:48:36.189Z,31.77
2023-04-16T08:49:40.602Z,32.37
2023-04-16T08:50:43.585Z,32.31
2023-04-16T08:51:52.183Z,32.16
2023-04-16T08:53:02.481Z,31.54
2023-04-16T08:54:06.469Z,31.80
2023-04-16T08:55:15.656Z,33.40
2023-04-16T08:56:19.752Z,32.42
2023-04-16T08:57:22.609Z,33.12
2023-04-16T08:58:25.724Z,32.27
2023-04-16T08:59:28.769Z,31.97
2023-04-16T09:00:32.161Z,31.39
2023-04-16T09:01:35.071Z,31.74
2023-04-16T09:02:38.079Z,31.63
2023-04-16T09:03:41.935Z,30.94
2023-04-16T09:04:45.150Z,30.07
2023-04-16T09:05:49.463Z,30.01
2023-04-16T09:06:52.714Z,29.42
2023-04-16T09:07:55.724Z,29.76
2023-04-16T09:08:58.867Z,30.58
2023-04-16T09:10:05.100Z,31.63
2023-04-16T09:11:07.989Z,31.78
2023-04-16T09:12:11.552Z,33.07
2023-04-16T09:13:17.392Z,32.02
2023-04-16T09:14:20.939Z,32.53
2023-04-16T09:15:23.893Z,31.47
2023-04-16T09:16:26.939Z,31.27
2023-04-16T09:17:30.065Z,31.35
2023-04-16T09:18:32.801Z,30.40
2023-04-16T09:19:36.127Z,29.87
2023-04-16T09:20:39.936Z,29.98
2023-04-16T09:21:43.762Z,29.43
2023-04-16T09:22:47.540Z,29.45
2023-04-16T09:23:50.812Z,28.90
2023-04-16T09:24:53.694Z,29.21
2023-04-16T09:25:58.294Z,29.78
2023-04-16T09:27:01.869Z,30.46
2023-04-16T09:28:05.310Z,29.87
2023-04-16T09:29:10.606Z,29.20
2023-04-16T09:30:23.812Z,28.37
2023-04-16T09:31:27.315Z,28.82
2023-04-16T09:32:30.991Z,28.09
2023-04-16T09:33:35.005Z,27.80
2023-04-16T09:34:56.957Z,26.45
2023-04-16T09:36:00.370Z,27.02
2023-04-16T09:37:19.524Z,27.83
2023-04-16T09:38:23.272Z,28.59
2023-04-16T09:39:26.906Z,27.97
2023-04-16T09:40:32.018Z,28.31
2023-04-16T09:41:40.578Z,27.51
2023-04-16T09:42:43.734Z,26.30
2023-04-16T09:44:05.452Z,25.58
2023-04-16T09:45:09.463Z,25.14
2023-04-16T09:46:14.085Z,24.52
2023-04-16T09:47:17.615Z,24.83
2023-04-16T09:48:33.056Z,26.08
2023-04-16T09:49:37.412Z,26.07
2023-04-16T09:50:40.199Z,27.00
2023-04-16T09:51:43.900Z,26.05
2023-04-16T09:52:48.920Z,26.41
2023-04-16T09:53:52.581Z,27.36
2023-04-16T09:54:55.704Z,27.40
2023-04-16T09:55:59.071Z,27.39
2023-04-16T09:57:01.770Z,27.17
2023-04-16T09:58:04.883Z,27.90
2023-04-16T09:59:07.957Z,26.56
2023-04-16T10:00:11.667Z,27.27
2023-04-16T10:01:14.791Z,26.86
2023-04-16T10:02:17.943Z,27.19
2023-04-16T10:03:21.220Z,27.54
2023-04-16T10:04:24.393Z,26.61
2023-04-16T10:05:27.264Z,26.36
2023-04-16T10:06:30.763Z,26.93
2023-04-16T10:07:37.220Z,27.19
2023-04-16T10:08:44.219Z,27.05
2023-04-16T10:09:49.056Z,27.04
2023-04-16T10:10:52.018Z,26.17
2023-04-16T10:11:54.873Z,26.32
2023-04-16T10:12:58.972Z,25.91
2023-04-16T10:14:02.578Z,25.36
2023-04-16T10:15:06.113Z,26.66
2023-04-16T10:16:09.986Z,26.82
2023-04-16T10:17:13.199Z,26.57
2023-04-16T10:18:16.495Z,26.10
2023-04-16T10:19:19.257Z,27.02
2023-04-16T10:20:22.522Z,27.63
2023-04-16T10:21:27.537Z,26.98
2023-04-16T10:22:30.862Z,27.31
2023-04-16T10:23:34.619Z,26.21
2023-04-16T10:24:37.853Z,25.93
2023-04-16T10:25:41.306Z,26.19
2023-04-16T10:26:45.325Z,26.91
2023-04-16T10:27:48.395Z,27.62
2023-04-16T10:28:51.487Z,27.08
2023-04-16T10:29:54.440Z,28.00
2023-04-16T10:30:58.472Z,27.35
2023-04-16T10:32:02.103Z,27.04
2023-04-16T10:33:05.170Z,26.50
2023-04-16T10:34:08.911Z,26.25
2023-04-16T10:35:15.550Z,26.50
2023-04-16T10:36:25.452Z,26.78
2023-04-16T10:37:31.919Z,26.84
2023-04-16T10:38:36.255Z,26.96
2023-04-16T10:39:39.625Z,27.38
2023-04-16T10:40:43.245Z,27.21
2023-04-16T10:41:46.429Z,26.92
2023-04-16T10:42:56.192Z,25.84
2023-04-16T10:44:11.639Z,25.28
2023-04-16T10:45:15.052Z,24.87
2023-04-16T10:46:47.723Z,25.42
2023-04-16T10:47:51.270Z,25.22
2023-04-16T10:48:54.893Z,26.10
2023-04-16T10:49:58.492Z,25.97
2023-04-16T10:51:01.679Z,25.31
2023-04-16T10:52:12.550Z,26.28
2023-04-16T10:53:19.853Z,25.36
2023-04-16T10:54:29.687Z,24.62
2023-04-16T10:55:32.750Z,24.78
2023-04-16T10:56:36.224Z,24.75
2023-04-16T10:57:39.386Z,25.34
2023-04-16T10:58:42.919Z,24.91
2023-04-16T10:59:46.913Z,25.69
2023-04-16T11:00:51.610Z,25.07
2023-04-16T11:01:55.559Z,25.77
2023-04-16T11:02:58.727Z,25.49
2023-04-16T11:04:05.614Z,24.52
2023-04-16T11:05:10.269Z,24.55
2023-04-16T11:06:18.244Z,24.93
2023-04-16T11:07:21.754Z,25.16
2023-04-16T11:08:26.358Z,24.99
2023-04-16T11:09:50.852Z,25.43
2023-04-16T11:10:54.195Z,23.98
2023-04-16T11:11:57.629Z,24.15
2023-04-16T11:13:00.943Z,24.45
2023-04-16T11:14:03.860Z,24.61
2023-04-16T11:15:07.392Z,25.12
2023-04-16T11:16:10.763Z,25.08
2023-04-16T11:17:14.103Z,25.18
2023-04-16T11:18:20.423Z,24.48
2023-04-16T11:19:23.804Z,24.34
2023-04-16T11:20:27.245Z,24.28
2023-04-16T11:21:30.215Z,24.19
2023-04-16T11:22:34.823Z,24.30
2023-04-16T11:23:48.136Z,25.30
2023-04-16T11:24:55.062Z,24.54
2023-04-16T11:25:59.270Z,23.14
2023-04-16T11:27:02.380Z,23.47
2023-04-16T11:28:05.611Z,24.29
2023-04-16T11:29:14.631Z,24.38
2023-04-16T11:30:17.901Z,24.49
2023-04-16T11:31:21.361Z,23.51
2023-04-16T11:32:25.056Z,23.05
2023-04-16T11:33:28.652Z,23.32
2023-04-16T11:34:31.769Z,23.29
2023-04-16T11:35:34.955Z,24.26
2023-04-16T11:36:47.738Z,24.84
2023-04-16T11:37:51.246Z,25.16
2023-04-16T11:39:01.935Z,26.36
2023-04-16T11:40:09.170Z,26.20
2023-04-16T11:41:12.255Z,27.08
2023-04-16T11:42:19.424Z,26.57
2023-04-16T11:43:22.176Z,25.61
2023-04-16T11:44:26.381Z,25.74
2023-04-16T11:45:29.858Z,25.45
2023-04-16T11:46:39.695Z,24.91
2023-04-16T11:47:48.234Z,24.51
2023-04-16T11:48:54.474Z,25.77
2023-04-16T11:49:58.621Z,25.88
2023-04-16T11:51:02.006Z,26.47
2023-04-16T11:52:05.245Z,25.12
2023-04-16T11:53:08.287Z,25.12
2023-04-16T11:54:12.251Z,25.81
2023-04-16T11:55:16.307Z,26.42
2023-04-16T11:56:26.882Z,26.72
2023-04-16T11:57:30.881Z,26.42
2023-04-16T11:58:34.628Z,26.95
2023-04-16T12:00:01.540Z,25.79
2023-04-16T12:01:02.079Z,25.83
2023-04-16T12:02:05.325Z,25.82
2023-04-16T12:03:08.959Z,25.00
2023-04-16T12:04:12.311Z,25.59
2023-04-16T12:05:32.961Z,25.10
2023-04-16T12:06:36.224Z,25.36
2023-04-16T12:07:47.169Z,24.51
2023-04-16T12:08:50.957Z,24.12
2023-04-16T12:09:55.932Z,23.50
2023-04-16T12:11:00.275Z,23.16
2023-04-16T12:12:03.856Z,22.76
2023-04-16T12:13:13.847Z,23.84
2023-04-16T12:14:17.703Z,23.13
2023-04-16T12:15:21.288Z,23.35
2023-04-16T12:16:24.804Z,23.12
2023-04-16T12:17:27.993Z,23.19
2023-04-16T12:18:30.953Z,22.32
2023-04-16T12:19:34.224Z,22.31
2023-04-16T12:20:41.825Z,22.33
2023-04-16T12:21:45.846Z,21.83
2023-04-16T12:22:50.398Z,21.92
2023-04-16T12:23:56.155Z,21.59
2023-04-16T12:25:00.005Z,21.15
2023-04-16T12:26:11.062Z,20.28
2023-04-16T12:27:14.009Z,20.04
2023-04-16T12:28:28.279Z,20.17
2023-04-16T12:29:32.513Z,20.75
2023-04-16T12:30:35.824Z,21.06
2023-04-16T12:31:38.930Z,19.90
2023-04-16T12:32:42.255Z,21.22
2023-04-16T12:33:45.681Z,21.11
2023-04-16T12:34:52.402Z,20.32
2023-04-16T12:35:55.575Z,19.96
2023-04-16T12:37:07.378Z,22.08
2023-04-16T12:38:11.032Z,23.23
2023-04-16T12:39:14.577Z,23.74
2023-04-16T12:40:17.912Z,23.68
2023-04-16T12:41:21.622Z,23.73
2023-04-16T12:42:25.334Z,23.17
2023-04-16T12:43:29.500Z,23.89
2023-04-16T12:44:33.138Z,23.56
2023-04-16T12:45:36.704Z,23.71
2023-04-16T12:46:40.830Z,23.54
2023-04-16T12:47:44.253Z,23.97
2023-04-16T12:48:48.030Z,23.66
2023-04-16T12:49:51.716Z,23.44
2023-04-16T12:50:55.977Z,24.00
2023-04-16T12:51:59.475Z,23.61
2023-04-16T12:53:02.802Z,22.83
2023-04-16T12:54:08.471Z,21.63
2023-04-16T12:55:11.431Z,22.21
2023-04-16T12:56:14.267Z,22.23
2023-04-16T12:57:17.725Z,22.99
2023-04-16T12:58:21.330Z,23.89
2023-04-16T12:59:24.958Z,23.75
2023-04-16T13:00:28.577Z,23.74
2023-04-16T13:01:31.866Z,23.80
2023-04-16T13:02:35.242Z,24.33
2023-04-16T13:03:38.844Z,24.43
2023-04-16T13:04:42.967Z,24.04
2023-04-16T13:05:46.214Z,24.35
2023-04-16T13:06:48.978Z,25.42
2023-04-16T13:07:52.185Z,24.82
2023-04-16T13:08:55.480Z,26.40
2023-04-16T13:09:58.775Z,28.15
2023-04-16T13:11:01.972Z,27.43
2023-04-16T13:12:05.033Z,27.79
2023-04-16T13:13:08.715Z,27.80
2023-04-16T13:14:11.967Z,28.22
2023-04-16T13:15:15.272Z,26.01
2023-04-16T13:16:18.885Z,25.88
2023-04-16T13:17:22.130Z,25.34
2023-04-16T13:18:27.359Z,24.70
2023-04-16T13:19:31.593Z,26.19
2023-04-16T13:20:35.067Z,28.61
2023-04-16T13:21:38.293Z,29.11
2023-04-16T13:22:41.452Z,29.56
2023-04-16T13:23:44.475Z,29.26
2023-04-16T13:24:47.542Z,29.82
2023-04-16T13:25:51.002Z,29.88
2023-04-16T13:26:54.198Z,29.82
2023-04-16T13:27:57.459Z,29.96
2023-04-16T13:29:00.307Z,30.05
2023-04-16T13:30:03.766Z,29.68
2023-04-16T13:31:07.337Z,29.78
2023-04-16T13:32:11.153Z,29.88
2023-04-16T13:33:14.920Z,30.17
2023-04-16T13:34:18.331Z,29.69
2023-04-16T13:35:21.777Z,30.15
2023-04-16T13:36:27.472Z,30.32
2023-04-16T13:37:30.433Z,31.00
2023-04-16T13:38:33.728Z,31.68
2023-04-16T13:39:37.288Z,31.40
2023-04-16T13:40:40.652Z,31.55
2023-04-16T13:41:44.478Z,30.79
2023-04-16T13:42:47.584Z,30.54
2023-04-16T13:43:51.110Z,30.25
2023-04-16T13:44:55.972Z,30.24
2023-04-16T13:45:59.492Z,29.33
2023-04-16T13:47:02.633Z,29.80